createdAt,value
2022-12-22T00:00:21.118Z,93.97
2022-12-22T00:03:07.598Z,104.13
2022-12-22T00:05:53.786Z,117.27
2022-12-22T00:08:42.862Z,108.77
2022-12-22T00:11:32.101Z,100.57
2022-12-22T00:14:18.431Z,104.67
2022-12-22T00:17:04.816Z,103.00
2022-12-22T00:19:50.910Z,113.83
2022-12-22T00:22:42.664Z,120.20
2022-12-22T00:25:32.462Z,116.67
2022-12-22T00:28:20.998Z,109.63
2022-12-22T00:31:06.951Z,110.13
2022-12-22T00:33:55.333Z,98.07
2022-12-22T00:36:44.045Z,105.43
2022-12-22T00:39:32.465Z,121.23
2022-12-22T00:42:18.485Z,112.47
2022-12-22T00:45:10.616Z,101.70
2022-12-22T00:47:59.845Z,113.00
2022-12-22T00:50:51.959Z,102.30
2022-12-22T00:53:38.666Z,97.73
2022-12-22T00:56:26.801Z,108.17
2022-12-22T01:02:22.838Z,102.83
2022-12-22T01:05:10.287Z,118.43
2022-12-22T01:07:56.410Z,113.33
2022-12-22T01:10:45.084Z,118.13
2022-12-22T01:13:31.812Z,114.57
2022-12-22T01:16:17.819Z,112.07
2022-12-22T01:21:55.882Z,116.30
2022-12-22T01:24:41.925Z,115.87
2022-12-22T01:27:28.608Z,113.27
2022-12-22T01:30:14.015Z,116.57
2022-12-22T01:32:59.584Z,141.73
2022-12-22T01:35:47.396Z,115.50
2022-12-22T01:38:34.804Z,125.07
2022-12-22T01:41:22.159Z,127.43
2022-12-22T01:44:08.175Z,115.50
2022-12-22T01:46:55.830Z,109.63
2022-12-22T01:49:46.010Z,131.33
2022-12-22T01:52:34.503Z,104.63
2022-12-22T01:55:27.043Z,128.53
2022-12-22T01:58:13.458Z,113.30
2022-12-22T02:01:00.820Z,116.13
2022-12-22T02:03:46.542Z,120.80
2022-12-22T02:06:40.563Z,113.70
2022-12-22T02:09:38.059Z,109.67
2022-12-22T02:12:30.217Z,110.40
2022-12-22T02:15:22.163Z,144.77
2022-12-22T02:18:15.996Z,119.30
2022-12-22T02:21:07.931Z,108.60
2022-12-22T02:24:22.933Z,111.13
2022-12-22T02:27:13.144Z,109.63
2022-12-22T02:30:02.377Z,112.40
2022-12-22T02:32:52.869Z,110.03
2022-12-22T02:35:38.820Z,118.30
2022-12-22T02:38:35.343Z,108.63
2022-12-22T02:41:33.004Z,110.10
2022-12-22T02:44:37.726Z,119.63
2022-12-22T02:47:37.340Z,110.63
2022-12-22T02:50:29.665Z,135.97
2022-12-22T02:53:16.932Z,114.47
2022-12-22T02:56:02.410Z,134.27
2022-12-22T02:58:51.913Z,101.73
2022-12-22T03:01:38.838Z,110.47
2022-12-22T03:04:24.308Z,117.90
2022-12-22T03:07:09.928Z,112.30
2022-12-22T03:09:55.489Z,102.27
2022-12-22T03:12:51.057Z,112.27
2022-12-22T03:15:36.925Z,110.00
2022-12-22T03:18:25.771Z,110.30
2022-12-22T03:21:12.195Z,121.77
2022-12-22T03:23:58.570Z,102.40
2022-12-22T03:26:27.355Z,124.53
2022-12-22T03:28:56.110Z,101.00
2022-12-22T03:31:24.392Z,100.20
2022-12-22T03:33:54.071Z,108.83
2022-12-22T03:36:22.303Z,103.97
2022-12-22T03:38:50.499Z,100.40
2022-12-22T03:41:32.591Z,96.27
2022-12-22T03:44:18.130Z,100.60
2022-12-22T03:46:46.467Z,94.13
2022-12-22T03:49:16.227Z,92.13
2022-12-22T03:51:45.764Z,90.13
2022-12-22T03:54:15.603Z,94.67
2022-12-22T03:56:43.889Z,92.23
2022-12-22T03:59:12.932Z,90.43
2022-12-22T04:01:43.624Z,74.00
2022-12-22T04:04:13.106Z,103.03
2022-12-22T04:06:43.872Z,87.80
2022-12-22T04:09:12.149Z,107.47
2022-12-22T04:11:57.868Z,77.00
2022-12-22T04:14:33.099Z,70.87
2022-12-22T04:17:02.348Z,77.27
2022-12-22T04:19:30.771Z,80.00
2022-12-22T04:22:00.843Z,96.70
2022-12-22T04:24:29.373Z,80.60
2022-12-22T04:27:11.183Z,90.93
2022-12-22T04:29:39.369Z,91.33
2022-12-22T04:32:07.664Z,82.00
2022-12-22T04:34:35.930Z,93.93
2022-12-22T04:37:12.954Z,99.13
2022-12-22T04:39:45.222Z,91.73
2022-12-22T04:42:14.863Z,91.63
2022-12-22T04:44:43.082Z,84.73
2022-12-22T04:47:11.280Z,84.53
2022-12-22T04:49:39.526Z,90.03
2022-12-22T04:52:07.955Z,90.53
2022-12-22T04:54:36.190Z,94.87
2022-12-22T04:57:04.373Z,90.07
2022-12-22T04:59:34.027Z,90.47
2022-12-22T05:02:02.304Z,103.43
2022-12-22T05:04:30.550Z,103.27
2022-12-22T05:06:58.817Z,104.70
2022-12-22T05:09:26.983Z,90.33
2022-12-22T05:11:55.326Z,102.83
2022-12-22T05:14:23.527Z,95.47
2022-12-22T05:16:53.211Z,90.97
2022-12-22T05:19:24.868Z,89.33
2022-12-22T05:21:55.592Z,108.07
2022-12-22T05:24:23.826Z,98.73
2022-12-22T05:26:52.401Z,96.47
2022-12-22T05:29:20.650Z,102.73
2022-12-22T05:31:48.842Z,86.63
2022-12-22T05:34:18.417Z,92.30
2022-12-22T05:36:46.608Z,108.47
2022-12-22T05:39:14.832Z,90.50
2022-12-22T05:41:42.977Z,95.63
2022-12-22T05:44:11.165Z,83.23
2022-12-22T05:46:39.450Z,93.07
2022-12-22T05:49:07.792Z,91.70
2022-12-22T05:51:37.357Z,89.90
2022-12-22T05:54:05.588Z,96.63
2022-12-22T05:56:33.771Z,91.43
2022-12-22T05:59:01.968Z,88.73
2022-12-22T06:01:30.221Z,92.70
2022-12-22T06:04:00.644Z,82.63
2022-12-22T06:06:29.224Z,85.07
2022-12-22T06:08:58.792Z,91.57
2022-12-22T06:11:27.002Z,89.30
2022-12-22T06:13:55.217Z,93.33
2022-12-22T06:16:24.523Z,81.90
2022-12-22T06:18:52.786Z,87.37
2022-12-22T06:21:21.042Z,96.77
2022-12-22T06:23:49.288Z,96.43
2022-12-22T06:26:18.819Z,93.73
2022-12-22T06:28:47.025Z,85.77
2022-12-22T06:31:15.283Z,74.93
2022-12-22T06:33:43.605Z,90.63
2022-12-22T06:36:12.389Z,81.83
2022-12-22T06:38:40.577Z,93.33
2022-12-22T06:41:08.771Z,77.53
2022-12-22T06:43:37.437Z,89.03
2022-12-22T06:46:05.918Z,94.40
2022-12-22T06:48:34.124Z,93.10
2022-12-22T06:51:02.411Z,84.27
2022-12-22T06:53:30.645Z,94.00
2022-12-22T06:55:58.830Z,91.87
2022-12-22T06:58:27.105Z,87.67
2022-12-22T07:00:58.633Z,73.37
2022-12-22T07:03:26.954Z,90.87
2022-12-22T07:05:55.268Z,93.13
2022-12-22T07:08:23.695Z,91.30
2022-12-22T07:11:00.578Z,82.27
2022-12-22T07:13:31.931Z,87.40
2022-12-22T07:16:02.482Z,88.87
2022-12-22T07:18:32.795Z,79.93
2022-12-22T07:21:01.515Z,87.10
2022-12-22T07:23:30.681Z,77.27
2022-12-22T07:25:59.673Z,79.17
2022-12-22T07:28:28.213Z,98.87
2022-12-22T07:30:57.099Z,85.30
2022-12-22T07:33:26.942Z,80.23
2022-12-22T07:36:07.138Z,85.93
2022-12-22T07:38:37.729Z,80.53
2022-12-22T07:41:28.041Z,90.70
2022-12-22T07:43:56.839Z,82.83
2022-12-22T07:46:26.649Z,82.00
2022-12-22T07:49:14.181Z,75.20
2022-12-22T07:51:45.912Z,78.87
2022-12-22T07:54:16.426Z,71.23
2022-12-22T07:56:45.359Z,75.03
2022-12-22T07:59:14.037Z,70.97
2022-12-22T08:01:43.267Z,71.17
2022-12-22T08:04:13.175Z,67.00
2022-12-22T08:06:41.757Z,70.57
2022-12-22T08:09:11.211Z,73.33
2022-12-22T08:11:39.416Z,73.53
2022-12-22T08:14:07.760Z,68.37
2022-12-22T08:16:36.124Z,63.43
2022-12-22T08:19:04.502Z,78.03
2022-12-22T08:21:34.181Z,66.43
2022-12-22T08:24:02.432Z,85.90
2022-12-22T08:26:36.133Z,67.97
2022-12-22T08:29:08.570Z,75.00
2022-12-22T08:31:37.118Z,81.23
2022-12-22T08:34:08.571Z,70.50
2022-12-22T08:36:41.374Z,65.97
2022-12-22T08:39:10.052Z,71.53
2022-12-22T08:41:53.652Z,65.97
2022-12-22T08:44:24.515Z,66.57
2022-12-22T08:46:53.815Z,83.07
2022-12-22T08:49:22.189Z,66.23
2022-12-22T08:51:52.424Z,70.45
2022-12-22T08:54:20.932Z,68.32
2022-12-22T08:56:49.622Z,63.45
2022-12-22T08:59:18.527Z,59.47
2022-12-22T09:01:50.688Z,58.10
2022-12-22T09:04:21.611Z,59.80
2022-12-22T09:06:52.662Z,64.97
2022-12-22T09:09:21.743Z,60.20
2022-12-22T09:11:50.319Z,59.53
2022-12-22T09:14:19.040Z,64.13
2022-12-22T09:16:47.531Z,65.17
2022-12-22T09:19:15.807Z,61.40
2022-12-22T09:21:45.066Z,64.80
2022-12-22T09:24:16.275Z,63.07
2022-12-22T09:26:44.635Z,61.63
2022-12-22T09:29:15.391Z,63.40
2022-12-22T09:31:44.473Z,69.47
2022-12-22T09:34:17.495Z,67.25
2022-12-22T09:36:46.810Z,63.42
2022-12-22T09:39:17.090Z,60.90
2022-12-22T09:41:48.622Z,60.00
2022-12-22T09:44:26.657Z,58.83
2022-12-22T09:47:00.202Z,59.23
2022-12-22T09:49:29.066Z,55.23
2022-12-22T09:51:59.934Z,57.87
2022-12-22T09:54:30.905Z,57.35
2022-12-22T09:56:59.520Z,60.40
2022-12-22T09:59:29.148Z,63.07
2022-12-22T10:02:21.978Z,60.22
2022-12-22T10:05:04.512Z,63.53
2022-12-22T10:07:34.933Z,64.38
2022-12-22T10:10:09.205Z,61.22
2022-12-22T10:12:37.631Z,63.80
2022-12-22T10:15:14.145Z,59.17
2022-12-22T10:17:45.306Z,65.47
2022-12-22T10:20:26.489Z,56.65
2022-12-22T10:22:56.896Z,53.33
2022-12-22T10:25:51.880Z,52.20
2022-12-22T10:28:24.402Z,58.08
2022-12-22T10:31:15.994Z,57.53
2022-12-22T10:33:47.698Z,55.22
2022-12-22T10:36:20.679Z,53.20
2022-12-22T10:39:02.544Z,51.42
2022-12-22T10:41:36.568Z,52.38
2022-12-22T10:44:09.678Z,53.92
2022-12-22T10:46:41.942Z,49.33
2022-12-22T10:49:22.669Z,55.58
2022-12-22T10:51:55.310Z,52.63
2022-12-22T10:54:32.632Z,51.90
2022-12-22T10:57:21.604Z,54.03
2022-12-22T10:59:51.546Z,50.42
2022-12-22T11:02:33.688Z,49.88
2022-12-22T11:05:08.037Z,51.17
2022-12-22T11:07:38.094Z,53.60
2022-12-22T11:10:19.036Z,53.47
2022-12-22T11:13:20.307Z,54.83
2022-12-22T11:15:55.803Z,50.08
2022-12-22T11:18:42.231Z,54.13
2022-12-22T11:21:20.350Z,53.55
2022-12-22T11:24:00.114Z,53.70
2022-12-22T11:26:34.623Z,55.58
2022-12-22T11:29:20.947Z,57.70
2022-12-22T11:31:59.867Z,50.78
2022-12-22T11:34:51.490Z,48.95
2022-12-22T11:37:30.008Z,57.97
2022-12-22T11:40:04.515Z,58.58
2022-12-22T11:42:51.593Z,51.03
2022-12-22T11:45:43.552Z,54.88
2022-12-22T11:48:36.121Z,55.58
2022-12-22T11:51:14.683Z,57.80
2022-12-22T11:54:21.287Z,59.47
2022-12-22T11:56:58.108Z,55.08
2022-12-22T11:59:45.645Z,53.67
2022-12-22T12:02:52.598Z,51.40
2022-12-22T12:05:37.646Z,54.35
2022-12-22T12:08:16.560Z,55.20
2022-12-22T12:10:49.123Z,45.13
2022-12-22T12:13:30.075Z,51.13
2022-12-22T12:16:10.084Z,52.30
2022-12-22T12:18:57.864Z,55.40
2022-12-22T12:21:30.531Z,49.20
2022-12-22T12:24:22.934Z,51.30
2022-12-22T12:27:01.863Z,49.92
2022-12-22T12:29:36.676Z,53.20
2022-12-22T12:32:08.382Z,55.88
2022-12-22T12:34:42.799Z,58.35
2022-12-22T12:37:25.884Z,54.78
2022-12-22T12:40:06.328Z,57.00
2022-12-22T12:42:39.032Z,55.50
2022-12-22T12:45:34.829Z,58.53
2022-12-22T12:48:39.359Z,59.25
2022-12-22T12:51:42.150Z,58.70
2022-12-22T12:54:43.398Z,56.95
2022-12-22T12:57:23.870Z,57.65
2022-12-22T12:59:53.689Z,51.92
2022-12-22T13:02:41.995Z,56.63
2022-12-22T13:05:29.878Z,58.42
2022-12-22T13:08:20.080Z,48.22
2022-12-22T13:11:44.674Z,51.63
2022-12-22T13:14:08.595Z,55.95
2022-12-22T13:16:39.480Z,59.00
2022-12-22T13:19:24.688Z,52.35
2022-12-22T13:21:58.019Z,54.00
2022-12-22T13:24:32.140Z,48.15
2022-12-22T13:27:08.661Z,46.20
2022-12-22T13:29:43.997Z,40.03
2022-12-22T13:32:28.539Z,38.70
2022-12-22T13:35:32.537Z,43.67
2022-12-22T13:38:01.459Z,37.92
2022-12-22T13:40:32.132Z,35.40
2022-12-22T13:43:06.800Z,37.40
2022-12-22T13:45:39.330Z,37.88
2022-12-22T13:48:13.610Z,33.38
2022-12-22T13:50:46.354Z,38.20
2022-12-22T13:53:49.930Z,33.35
2022-12-22T13:56:15.153Z,37.22
2022-12-22T13:58:46.698Z,39.42
2022-12-22T14:01:20.965Z,38.30
2022-12-22T14:04:01.417Z,41.72
2022-12-22T14:06:33.060Z,39.72
2022-12-22T14:09:20.211Z,41.50
2022-12-22T14:11:57.585Z,45.17
2022-12-22T14:14:29.803Z,40.63
2022-12-22T14:17:00.537Z,47.10
2022-12-22T14:19:33.642Z,45.92
2022-12-22T14:22:09.891Z,46.15
2022-12-22T14:24:44.445Z,46.17
2022-12-22T14:27:20.589Z,42.40
2022-12-22T14:29:50.924Z,48.10
2022-12-22T14:32:36.828Z,48.15
2022-12-22T14:35:05.888Z,52.85
2022-12-22T14:37:34.214Z,44.80
2022-12-22T14:40:02.729Z,43.97
2022-12-22T14:42:32.571Z,41.13
2022-12-22T14:45:02.424Z,45.03
2022-12-22T14:47:31.091Z,46.78
2022-12-22T14:50:05.400Z,46.13
2022-12-22T14:52:38.963Z,48.17
2022-12-22T14:55:22.131Z,42.25
2022-12-22T14:57:54.847Z,40.40
2022-12-22T15:00:34.325Z,42.78
2022-12-22T15:03:05.425Z,45.25
2022-12-22T15:05:37.570Z,49.83
2022-12-22T15:08:09.316Z,50.20
2022-12-22T15:10:43.747Z,46.78
2022-12-22T15:13:22.772Z,45.75
2022-12-22T15:15:52.813Z,43.38
2022-12-22T15:18:26.683Z,46.10
2022-12-22T15:20:55.212Z,45.22
2022-12-22T15:23:24.191Z,46.42
2022-12-22T15:25:52.832Z,43.97
2022-12-22T15:28:21.088Z,48.47
2022-12-22T15:30:49.474Z,47.75
2022-12-22T15:33:20.639Z,53.92
2022-12-22T15:35:49.136Z,54.42
2022-12-22T15:38:18.931Z,53.03
2022-12-22T15:40:47.358Z,53.95
2022-12-22T15:43:55.981Z,55.08
2022-12-22T15:46:06.599Z,55.27
2022-12-22T15:48:39.580Z,55.45
2022-12-22T15:51:12.749Z,56.13
2022-12-22T15:53:41.906Z,61.53
2022-12-22T15:56:17.908Z,65.10
2022-12-22T15:58:46.507Z,66.32
2022-12-22T16:01:15.251Z,72.87
2022-12-22T16:03:45.053Z,61.77
2022-12-22T16:06:14.961Z,61.60
2022-12-22T16:08:47.165Z,61.20
2022-12-22T16:11:15.560Z,70.23
2022-12-22T16:13:44.028Z,76.77
2022-12-22T16:16:12.970Z,121.00
2022-12-22T16:18:41.288Z,88.80
2022-12-22T16:21:18.086Z,82.17
2022-12-22T16:23:49.108Z,72.00
2022-12-22T16:26:19.407Z,68.72
2022-12-22T16:28:48.124Z,67.47
2022-12-22T16:31:20.680Z,65.93
2022-12-22T16:33:49.460Z,61.83
2022-12-22T16:36:19.461Z,64.10
2022-12-22T16:38:48.763Z,63.05
2022-12-22T16:41:23.876Z,64.60
2022-12-22T16:43:53.469Z,67.60
2022-12-22T16:46:23.856Z,67.90
2022-12-22T16:48:54.497Z,61.37
2022-12-22T16:51:26.863Z,61.63
2022-12-22T16:53:55.400Z,63.43
2022-12-22T16:56:26.968Z,68.80
2022-12-22T16:58:55.543Z,60.85
2022-12-22T17:01:33.498Z,67.57
2022-12-22T17:04:05.440Z,61.58
2022-12-22T17:06:36.165Z,64.67
2022-12-22T17:09:05.685Z,66.27
2022-12-22T17:11:34.618Z,67.70
2022-12-22T17:14:09.295Z,68.77
2022-12-22T17:16:37.825Z,84.93
2022-12-22T17:19:07.531Z,78.27
2022-12-22T17:21:37.211Z,70.73
2022-12-22T17:24:06.040Z,69.30
2022-12-22T17:26:37.877Z,67.38
2022-12-22T17:29:06.577Z,65.32
2022-12-22T17:31:35.207Z,64.90
2022-12-22T17:34:13.761Z,67.65
2022-12-22T17:36:47.992Z,69.47
2022-12-22T17:39:18.207Z,63.20
2022-12-22T17:41:50.571Z,60.43
2022-12-22T17:44:28.653Z,75.13
2022-12-22T17:47:00.523Z,68.23
2022-12-22T17:49:29.047Z,68.60
2022-12-22T17:52:00.166Z,69.53
2022-12-22T17:54:29.142Z,73.25
2022-12-22T17:57:03.139Z,72.67
2022-12-22T17:59:32.221Z,68.80
2022-12-22T18:02:08.047Z,66.67
2022-12-22T18:04:37.977Z,72.38
2022-12-22T18:07:11.666Z,62.70
2022-12-22T18:09:45.322Z,71.63
2022-12-22T18:12:18.415Z,73.13
2022-12-22T18:14:48.970Z,61.70
2022-12-22T18:17:31.550Z,68.18
2022-12-22T18:20:07.223Z,65.67
2022-12-22T18:22:37.254Z,66.60
2022-12-22T18:25:17.197Z,66.27
2022-12-22T18:27:46.657Z,67.90
2022-12-22T18:30:21.155Z,68.33
2022-12-22T18:32:50.983Z,65.97
2022-12-22T18:35:20.606Z,69.27
2022-12-22T18:37:52.205Z,65.30
2022-12-22T18:40:28.662Z,70.20
2022-12-22T18:43:02.848Z,73.00
2022-12-22T18:45:34.610Z,70.13
2022-12-22T18:48:03.179Z,66.90
2022-12-22T18:50:35.969Z,68.23
2022-12-22T18:53:20.227Z,65.47
2022-12-22T18:55:55.765Z,66.97
2022-12-22T18:58:37.398Z,70.40
2022-12-22T19:01:16.124Z,75.50
2022-12-22T19:03:53.010Z,70.73
2022-12-22T19:06:38.177Z,71.60
2022-12-22T19:09:14.516Z,69.63
2022-12-22T19:11:46.683Z,76.00
2022-12-22T19:14:19.638Z,65.50
2022-12-22T19:16:58.627Z,71.10
2022-12-22T19:19:49.593Z,72.77
2022-12-22T19:22:20.776Z,70.83
2022-12-22T19:24:57.444Z,68.60
2022-12-22T19:27:28.607Z,68.83
2022-12-22T19:30:04.038Z,71.63
2022-12-22T19:32:46.263Z,67.73
2022-12-22T19:35:17.834Z,72.53
2022-12-22T19:37:55.931Z,67.97
2022-12-22T19:40:30.483Z,69.00
2022-12-22T19:43:00.516Z,72.80
2022-12-22T19:45:35.507Z,73.40
2022-12-22T19:48:05.520Z,71.07
2022-12-22T19:50:35.691Z,73.77
2022-12-22T19:53:06.841Z,70.60
2022-12-22T19:55:41.032Z,70.40
2022-12-22T19:58:19.148Z,65.53
2022-12-22T20:00:48.695Z,67.73
2022-12-22T20:03:22.848Z,63.47
2022-12-22T20:05:55.563Z,69.17
2022-12-22T20:08:24.345Z,65.27
2022-12-22T20:13:59.680Z,58.53
2022-12-22T20:16:35.628Z,60.43
2022-12-22T20:19:04.268Z,64.67
2022-12-22T20:21:32.745Z,65.97
2022-12-22T20:24:02.479Z,62.53
2022-12-22T20:26:31.284Z,66.35
2022-12-22T20:29:01.349Z,73.00
2022-12-22T20:31:32.511Z,72.23
2022-12-22T20:34:01.438Z,84.40
2022-12-22T20:36:32.113Z,72.00
2022-12-22T20:39:02.332Z,71.55
2022-12-22T20:41:30.884Z,71.28
2022-12-22T20:44:00.761Z,68.80
2022-12-22T20:46:30.924Z,62.22
2022-12-22T20:49:01.937Z,64.55
2022-12-22T20:51:32.776Z,61.20
2022-12-22T20:54:02.007Z,56.45
2022-12-22T20:56:32.411Z,63.70
2022-12-22T20:59:12.973Z,51.60
2022-12-22T21:01:41.529Z,58.53
2022-12-22T21:04:10.069Z,61.33
2022-12-22T21:06:40.982Z,58.40
2022-12-22T21:09:09.471Z,57.63
2022-12-22T21:11:37.745Z,67.80
2022-12-22T21:14:07.753Z,57.58
2022-12-22T21:16:36.176Z,74.13
2022-12-22T21:19:04.894Z,66.28
2022-12-22T21:21:33.502Z,63.65
2022-12-22T21:24:01.993Z,59.60
2022-12-22T21:26:35.529Z,61.38
2022-12-22T21:29:10.447Z,64.13
2022-12-22T21:31:47.515Z,57.47
2022-12-22T21:34:16.749Z,61.00
2022-12-22T21:36:47.962Z,55.03
2022-12-22T21:39:23.819Z,60.53
2022-12-22T21:42:01.553Z,51.10
2022-12-22T21:44:34.448Z,61.17
2022-12-22T21:47:05.930Z,53.47
2022-12-22T21:49:35.245Z,60.75
2022-12-22T21:52:03.891Z,54.77
2022-12-22T21:54:32.451Z,57.63
2022-12-22T21:57:04.214Z,54.63
2022-12-22T21:59:34.056Z,50.63
2022-12-22T22:02:02.961Z,54.72
2022-12-22T22:04:31.553Z,48.75
2022-12-22T22:07:00.116Z,52.17
2022-12-22T22:09:31.221Z,56.80
2022-12-22T22:12:21.978Z,52.53
2022-12-22T22:14:54.867Z,58.65
2022-12-22T22:17:23.678Z,49.08
2022-12-22T22:19:55.021Z,53.13
2022-12-22T22:25:28.110Z,54.70
2022-12-22T22:28:00.512Z,51.53
2022-12-22T22:30:30.468Z,55.27
2022-12-22T22:32:59.027Z,54.40
2022-12-22T22:35:28.576Z,51.40
2022-12-22T22:41:05.403Z,65.05
2022-12-22T22:55:33.452Z,66.05
2022-12-22T22:58:01.978Z,93.53
2022-12-22T23:00:33.510Z,70.73
2022-12-22T23:03:02.945Z,67.40
2022-12-22T23:05:31.551Z,57.17
2022-12-22T23:08:00.320Z,57.28
2022-12-22T23:10:30.321Z,50.95
2022-12-22T23:13:00.126Z,57.60
2022-12-22T23:15:28.437Z,52.45
2022-12-22T23:17:56.972Z,53.08
2022-12-22T23:20:25.243Z,68.60
2022-12-22T23:22:53.755Z,48.50
2022-12-22T23:25:25.208Z,50.67
2022-12-22T23:27:58.131Z,49.20
2022-12-22T23:30:28.948Z,47.03
2022-12-22T23:32:57.611Z,48.38
2022-12-22T23:35:25.865Z,49.92
2022-12-22T23:37:54.158Z,48.80
2022-12-22T23:40:51.064Z,50.30
2022-12-22T23:43:13.935Z,50.72
2022-12-22T23:45:43.031Z,49.33
2022-12-22T23:48:18.169Z,53.43
2022-12-22T23:50:47.778Z,46.17
2022-12-22T23:53:16.673Z,44.78
2022-12-22T23:55:45.578Z,57.65
2022-12-22T23:58:15.409Z,55.60
